sensor_id;sensor_type;location;lat;lon;timestamp;P1;durP1;ratioP1;P2;durP2;ratioP2
38083;SDS011;23894;51.466;7.444;2023-05-15T00:00:42;7.95;;;5.05;;
38083;SDS011;23894;51.466;7.444;2023-05-15T00:02:44;6.25;;;4.68;;
38083;SDS011;23894;51.466;7.444;2023-05-15T00:04:47;7.35;;;4.80;;
38083;SDS011;23894;51.466;7.444;2023-05-15T00:06:49;7.93;;;4.50;;
38083;SDS011;23894;51.466;7.444;2023-05-15T00:08:51;9.40;;;4.70;;
38083;SDS011;23894;51.466;7.444;2023-05-15T00:10:54;8.30;;;4.80;;
38083;SDS011;23894;51.466;7.444;2023-05-15T00:12:56;7.28;;;4.68;;
38083;SDS011;23894;51.466;7.444;2023-05-15T00:14:58;6.30;;;4.35;;
38083;SDS011;23894;51.466;7.444;2023-05-15T00:17:00;6.55;;;4.60;;
38083;SDS011;23894;51.466;7.444;2023-05-15T00:19:03;6.47;;;4.55;;
38083;SDS011;23894;51.466;7.444;2023-05-15T00:21:05;6.90;;;4.57;;
38083;SDS011;23894;51.466;7.444;2023-05-15T00:23:08;6.00;;;4.47;;
38083;SDS011;23894;51.466;7.444;2023-05-15T00:25:10;6.30;;;4.45;;
38083;SDS011;23894;51.466;7.444;2023-05-15T00:27:12;6.10;;;4.50;;
38083;SDS011;23894;51.466;7.444;2023-05-15T00:29:14;6.95;;;5.18;;
38083;SDS011;23894;51.466;7.444;2023-05-15T00:31:16;7.25;;;4.68;;
38083;SDS011;23894;51.466;7.444;2023-05-15T00:33:19;6.68;;;4.78;;
38083;SDS011;23894;51.466;7.444;2023-05-15T00:35:20;7.15;;;4.97;;
38083;SDS011;23894;51.466;7.444;2023-05-15T00:37:22;8.45;;;4.93;;
38083;SDS011;23894;51.466;7.444;2023-05-15T00:39:24;6.90;;;4.65;;
38083;SDS011;23894;51.466;7.444;2023-05-15T00:41:26;7.38;;;5.03;;
38083;SDS011;23894;51.466;7.444;2023-05-15T00:43:32;8.15;;;4.68;;
38083;SDS011;23894;51.466;7.444;2023-05-15T00:45:36;6.40;;;4.28;;
38083;SDS011;23894;51.466;7.444;2023-05-15T00:47:41;6.75;;;4.72;;
38083;SDS011;23894;51.466;7.444;2023-05-15T00:49:44;9.95;;;4.75;;
38083;SDS011;23894;51.466;7.444;2023-05-15T00:51:46;8.25;;;4.43;;
38083;SDS011;23894;51.466;7.444;2023-05-15T00:53:49;6.93;;;4.63;;
38083;SDS011;23894;51.466;7.444;2023-05-15T00:55:53;7.53;;;4.10;;
38083;SDS011;23894;51.466;7.444;2023-05-15T00:57:57;7.18;;;4.32;;
38083;SDS011;23894;51.466;7.444;2023-05-15T01:00:02;7.65;;;4.78;;
38083;SDS011;23894;51.466;7.444;2023-05-15T01:02:08;7.13;;;4.80;;
38083;SDS011;23894;51.466;7.444;2023-05-15T01:04:11;8.10;;;5.00;;
38083;SDS011;23894;51.466;7.444;2023-05-15T01:06:12;6.35;;;4.50;;
38083;SDS011;23894;51.466;7.444;2023-05-15T01:10:15;6.25;;;4.47;;
38083;SDS011;23894;51.466;7.444;2023-05-15T01:12:18;5.80;;;4.45;;
38083;SDS011;23894;51.466;7.444;2023-05-15T01:14:22;6.50;;;4.38;;
38083;SDS011;23894;51.466;7.444;2023-05-15T01:16:24;7.65;;;4.30;;
38083;SDS011;23894;51.466;7.444;2023-05-15T01:18:27;6.13;;;4.60;;
38083;SDS011;23894;51.466;7.444;2023-05-15T01:20:33;6.18;;;4.60;;
38083;SDS011;23894;51.466;7.444;2023-05-15T01:27:25;7.80;;;5.25;;
38083;SDS011;23894;51.466;7.444;2023-05-15T01:29:29;6.88;;;5.15;;
38083;SDS011;23894;51.466;7.444;2023-05-15T01:31:34;7.68;;;5.20;;
38083;SDS011;23894;51.466;7.444;2023-05-15T01:33:39;6.45;;;5.15;;
38083;SDS011;23894;51.466;7.444;2023-05-15T01:35:45;7.45;;;5.93;;
38083;SDS011;23894;51.466;7.444;2023-05-15T01:38:02;7.35;;;5.32;;
38083;SDS011;23894;51.466;7.444;2023-05-15T01:40:04;7.60;;;5.32;;
38083;SDS011;23894;51.466;7.444;2023-05-15T01:42:08;7.57;;;5.38;;
38083;SDS011;23894;51.466;7.444;2023-05-15T01:46:31;8.13;;;5.75;;
38083;SDS011;23894;51.466;7.444;2023-05-15T01:48:37;7.97;;;5.80;;
38083;SDS011;23894;51.466;7.444;2023-05-15T01:50:40;7.32;;;5.60;;
38083;SDS011;23894;51.466;7.444;2023-05-15T01:52:46;7.70;;;5.25;;
38083;SDS011;23894;51.466;7.444;2023-05-15T01:54:49;9.68;;;5.75;;
38083;SDS011;23894;51.466;7.444;2023-05-15T01:56:50;9.50;;;5.00;;
38083;SDS011;23894;51.466;7.444;2023-05-15T01:58:53;7.40;;;5.80;;
38083;SDS011;23894;51.466;7.444;2023-05-15T02:00:56;7.55;;;5.50;;
38083;SDS011;23894;51.466;7.444;2023-05-15T02:02:59;7.68;;;5.72;;
38083;SDS011;23894;51.466;7.444;2023-05-15T02:05:02;7.32;;;5.60;;
38083;SDS011;23894;51.466;7.444;2023-05-15T02:07:03;7.00;;;5.40;;
38083;SDS011;23894;51.466;7.444;2023-05-15T02:09:05;8.70;;;5.55;;
38083;SDS011;23894;51.466;7.444;2023-05-15T02:11:08;9.45;;;5.90;;
38083;SDS011;23894;51.466;7.444;2023-05-15T02:13:11;7.55;;;5.40;;
38083;SDS011;23894;51.466;7.444;2023-05-15T02:15:12;8.10;;;5.68;;
38083;SDS011;23894;51.466;7.444;2023-05-15T02:17:15;7.63;;;5.60;;
38083;SDS011;23894;51.466;7.444;2023-05-15T02:19:17;9.32;;;5.55;;
38083;SDS011;23894;51.466;7.444;2023-05-15T02:21:20;8.80;;;5.47;;
38083;SDS011;23894;51.466;7.444;2023-05-15T02:23:22;7.85;;;5.68;;
38083;SDS011;23894;51.466;7.444;2023-05-15T02:25:28;8.13;;;5.57;;
38083;SDS011;23894;51.466;7.444;2023-05-15T02:28:05;7.15;;;5.38;;
38083;SDS011;23894;51.466;7.444;2023-05-15T02:34:39;7.75;;;5.10;;
38083;SDS011;23894;51.466;7.444;2023-05-15T02:36:48;7.40;;;5.78;;
38083;SDS011;23894;51.466;7.444;2023-05-15T02:38:52;6.75;;;5.63;;
38083;SDS011;23894;51.466;7.444;2023-05-15T02:40:56;7.07;;;5.72;;
38083;SDS011;23894;51.466;7.444;2023-05-15T02:42:58;7.72;;;5.68;;
38083;SDS011;23894;51.466;7.444;2023-05-15T02:45:01;9.02;;;5.93;;
38083;SDS011;23894;51.466;7.444;2023-05-15T02:47:04;7.40;;;5.90;;
38083;SDS011;23894;51.466;7.444;2023-05-15T02:49:06;7.18;;;5.47;;
38083;SDS011;23894;51.466;7.444;2023-05-15T02:51:09;7.07;;;5.47;;
38083;SDS011;23894;51.466;7.444;2023-05-15T02:53:11;7.43;;;5.82;;
38083;SDS011;23894;51.466;7.444;2023-05-15T02:55:14;7.93;;;5.95;;
38083;SDS011;23894;51.466;7.444;2023-05-15T02:57:16;7.82;;;6.00;;
38083;SDS011;23894;51.466;7.444;2023-05-15T02:59:19;9.43;;;5.97;;
38083;SDS011;23894;51.466;7.444;2023-05-15T03:01:21;8.73;;;6.20;;
38083;SDS011;23894;51.466;7.444;2023-05-15T03:03:23;7.75;;;5.75;;
38083;SDS011;23894;51.466;7.444;2023-05-15T03:05:26;6.97;;;5.95;;
38083;SDS011;23894;51.466;7.444;2023-05-15T03:07:28;6.88;;;5.63;;
38083;SDS011;23894;51.466;7.444;2023-05-15T03:09:29;7.93;;;6.18;;
38083;SDS011;23894;51.466;7.444;2023-05-15T03:11:30;8.18;;;5.82;;
38083;SDS011;23894;51.466;7.444;2023-05-15T03:13:32;8.05;;;6.30;;
38083;SDS011;23894;51.466;7.444;2023-05-15T03:15:34;9.20;;;6.53;;
38083;SDS011;23894;51.466;7.444;2023-05-15T03:17:36;8.50;;;6.13;;
38083;SDS011;23894;51.466;7.444;2023-05-15T03:19:39;9.48;;;6.00;;
38083;SDS011;23894;51.466;7.444;2023-05-15T03:21:40;7.43;;;5.80;;
38083;SDS011;23894;51.466;7.444;2023-05-15T03:23:42;10.23;;;7.85;;
38083;SDS011;23894;51.466;7.444;2023-05-15T03:25:44;8.20;;;6.82;;
38083;SDS011;23894;51.466;7.444;2023-05-15T03:27:47;8.73;;;6.45;;
38083;SDS011;23894;51.466;7.444;2023-05-15T03:29:49;10.93;;;6.55;;
38083;SDS011;23894;51.466;7.444;2023-05-15T03:31:52;7.82;;;6.28;;
38083;SDS011;23894;51.466;7.444;2023-05-15T03:33:55;8.50;;;6.60;;
38083;SDS011;23894;51.466;7.444;2023-05-15T03:35:57;10.73;;;6.88;;
38083;SDS011;23894;51.466;7.444;2023-05-15T03:37:59;8.77;;;6.40;;
38083;SDS011;23894;51.466;7.444;2023-05-15T03:40:02;9.52;;;6.35;;
38083;SDS011;23894;51.466;7.444;2023-05-15T03:42:05;10.25;;;7.25;;
38083;SDS011;23894;51.466;7.444;2023-05-15T03:44:07;8.80;;;6.78;;
38083;SDS011;23894;51.466;7.444;2023-05-15T03:46:09;10.90;;;7.53;;
38083;SDS011;23894;51.466;7.444;2023-05-15T03:48:12;9.15;;;7.70;;
38083;SDS011;23894;51.466;7.444;2023-05-15T03:50:14;10.43;;;8.00;;
38083;SDS011;23894;51.466;7.444;2023-05-15T03:52:16;9.35;;;7.35;;
38083;SDS011;23894;51.466;7.444;2023-05-15T03:54:18;13.57;;;10.55;;
38083;SDS011;23894;51.466;7.444;2023-05-15T03:56:21;15.30;;;12.40;;
38083;SDS011;23894;51.466;7.444;2023-05-15T03:58:23;17.27;;;12.68;;
38083;SDS011;23894;51.466;7.444;2023-05-15T04:00:26;21.13;;;13.95;;
38083;SDS011;23894;51.466;7.444;2023-05-15T04:02:28;18.65;;;14.02;;
38083;SDS011;23894;51.466;7.444;2023-05-15T04:04:30;17.45;;;13.82;;
38083;SDS011;23894;51.466;7.444;2023-05-15T04:06:32;28.60;;;18.70;;
38083;SDS011;23894;51.466;7.444;2023-05-15T04:08:34;27.52;;;19.15;;
38083;SDS011;23894;51.466;7.444;2023-05-15T04:10:36;34.50;;;23.65;;
38083;SDS011;23894;51.466;7.444;2023-05-15T04:12:38;24.42;;;17.50;;
38083;SDS011;23894;51.466;7.444;2023-05-15T04:14:40;24.98;;;16.80;;
38083;SDS011;23894;51.466;7.444;2023-05-15T04:16:41;23.92;;;17.58;;
38083;SDS011;23894;51.466;7.444;2023-05-15T04:18:44;33.65;;;21.08;;
38083;SDS011;23894;51.466;7.444;2023-05-15T04:20:46;36.22;;;22.60;;
38083;SDS011;23894;51.466;7.444;2023-05-15T04:22:49;35.83;;;23.30;;
38083;SDS011;23894;51.466;7.444;2023-05-15T04:24:51;33.38;;;23.45;;
38083;SDS011;23894;51.466;7.444;2023-05-15T04:26:54;35.50;;;24.92;;
38083;SDS011;23894;51.466;7.444;2023-05-15T04:28:56;51.45;;;29.63;;
38083;SDS011;23894;51.466;7.444;2023-05-15T04:30:58;46.50;;;29.13;;
38083;SDS011;23894;51.466;7.444;2023-05-15T04:33:01;43.60;;;28.50;;
38083;SDS011;23894;51.466;7.444;2023-05-15T04:35:04;47.55;;;32.13;;
38083;SDS011;23894;51.466;7.444;2023-05-15T04:37:07;45.85;;;31.15;;
38083;SDS011;23894;51.466;7.444;2023-05-15T04:39:09;51.70;;;34.95;;
38083;SDS011;23894;51.466;7.444;2023-05-15T04:41:12;56.50;;;33.90;;
38083;SDS011;23894;51.466;7.444;2023-05-15T04:43:15;53.83;;;31.88;;
38083;SDS011;23894;51.466;7.444;2023-05-15T04:45:16;56.90;;;33.85;;
38083;SDS011;23894;51.466;7.444;2023-05-15T04:47:17;63.13;;;38.83;;
38083;SDS011;23894;51.466;7.444;2023-05-15T04:49:20;59.25;;;38.33;;
38083;SDS011;23894;51.466;7.444;2023-05-15T04:51:22;54.58;;;38.53;;
38083;SDS011;23894;51.466;7.444;2023-05-15T04:53:23;61.08;;;35.33;;
38083;SDS011;23894;51.466;7.444;2023-05-15T04:55:24;66.03;;;41.58;;
38083;SDS011;23894;51.466;7.444;2023-05-15T04:57:25;58.78;;;38.78;;
38083;SDS011;23894;51.466;7.444;2023-05-15T05:01:28;60.13;;;37.53;;
38083;SDS011;23894;51.466;7.444;2023-05-15T05:05:29;59.80;;;38.67;;
38083;SDS011;23894;51.466;7.444;2023-05-15T05:07:30;61.67;;;39.08;;
38083;SDS011;23894;51.466;7.444;2023-05-15T05:09:31;64.47;;;42.83;;
38083;SDS011;23894;51.466;7.444;2023-05-15T05:11:32;60.95;;;41.20;;
38083;SDS011;23894;51.466;7.444;2023-05-15T05:15:35;59.33;;;40.50;;
38083;SDS011;23894;51.466;7.444;2023-05-15T05:17:36;69.00;;;46.20;;
38083;SDS011;23894;51.466;7.444;2023-05-15T05:19:37;71.20;;;47.00;;
38083;SDS011;23894;51.466;7.444;2023-05-15T05:21:38;59.92;;;42.75;;
38083;SDS011;23894;51.466;7.444;2023-05-15T05:25:40;82.65;;;55.42;;
38083;SDS011;23894;51.466;7.444;2023-05-15T05:27:41;76.63;;;53.08;;
38083;SDS011;23894;51.466;7.444;2023-05-15T05:31:45;75.80;;;55.35;;
38083;SDS011;23894;51.466;7.444;2023-05-15T05:33:46;79.70;;;54.67;;
38083;SDS011;23894;51.466;7.444;2023-05-15T05:35:48;83.15;;;59.13;;
38083;SDS011;23894;51.466;7.444;2023-05-15T05:37:50;83.28;;;57.13;;
38083;SDS011;23894;51.466;7.444;2023-05-15T05:39:51;81.70;;;57.45;;
38083;SDS011;23894;51.466;7.444;2023-05-15T05:41:53;85.32;;;59.35;;
38083;SDS011;23894;51.466;7.444;2023-05-15T05:45:55;77.60;;;55.30;;
38083;SDS011;23894;51.466;7.444;2023-05-15T05:49:57;78.30;;;55.22;;
38083;SDS011;23894;51.466;7.444;2023-05-15T05:53:59;78.45;;;55.67;;
38083;SDS011;23894;51.466;7.444;2023-05-15T05:58:01;67.15;;;49.30;;
38083;SDS011;23894;51.466;7.444;2023-05-15T06:00:03;75.80;;;51.75;;
38083;SDS011;23894;51.466;7.444;2023-05-15T06:02:10;68.20;;;48.42;;
38083;SDS011;23894;51.466;7.444;2023-05-15T06:04:11;68.75;;;46.45;;
38083;SDS011;23894;51.466;7.444;2023-05-15T06:06:14;71.28;;;52.58;;
38083;SDS011;23894;51.466;7.444;2023-05-15T06:08:15;64.15;;;48.03;;
38083;SDS011;23894;51.466;7.444;2023-05-15T06:10:16;73.22;;;52.95;;
38083;SDS011;23894;51.466;7.444;2023-05-15T06:12:18;67.45;;;49.70;;
38083;SDS011;23894;51.466;7.444;2023-05-15T06:14:19;72.30;;;50.63;;
38083;SDS011;23894;51.466;7.444;2023-05-15T06:18:21;67.22;;;48.90;;
38083;SDS011;23894;51.466;7.444;2023-05-15T06:22:23;70.75;;;50.78;;
38083;SDS011;23894;51.466;7.444;2023-05-15T06:26:24;68.20;;;52.22;;
38083;SDS011;23894;51.466;7.444;2023-05-15T06:28:25;65.75;;;50.80;;
38083;SDS011;23894;51.466;7.444;2023-05-15T06:32:28;53.90;;;43.85;;
38083;SDS011;23894;51.466;7.444;2023-05-15T06:34:29;64.18;;;50.42;;
38083;SDS011;23894;51.466;7.444;2023-05-15T06:36:30;57.55;;;48.95;;
38083;SDS011;23894;51.466;7.444;2023-05-15T06:38:31;53.30;;;44.15;;
38083;SDS011;23894;51.466;7.444;2023-05-15T06:42:33;57.55;;;47.58;;
38083;SDS011;23894;51.466;7.444;2023-05-15T06:46:35;59.38;;;46.40;;
38083;SDS011;23894;51.466;7.444;2023-05-15T06:50:37;48.78;;;41.45;;
38083;SDS011;23894;51.466;7.444;2023-05-15T06:54:39;55.50;;;45.13;;
38083;SDS011;23894;51.466;7.444;2023-05-15T06:56:41;58.95;;;48.97;;
38083;SDS011;23894;51.466;7.444;2023-05-15T06:58:42;52.08;;;46.38;;
38083;SDS011;23894;51.466;7.444;2023-05-15T07:02:44;57.58;;;47.63;;
38083;SDS011;23894;51.466;7.444;2023-05-15T07:06:46;51.42;;;45.80;;
38083;SDS011;23894;51.466;7.444;2023-05-15T07:08:47;56.30;;;48.55;;
38083;SDS011;23894;51.466;7.444;2023-05-15T07:10:48;58.17;;;49.70;;
38083;SDS011;23894;51.466;7.444;2023-05-15T07:12:50;60.38;;;52.13;;
38083;SDS011;23894;51.466;7.444;2023-05-15T07:14:51;59.05;;;51.45;;
38083;SDS011;23894;51.466;7.444;2023-05-15T07:18:53;58.55;;;49.15;;
38083;SDS011;23894;51.466;7.444;2023-05-15T07:20:54;64.45;;;54.05;;
38083;SDS011;23894;51.466;7.444;2023-05-15T07:22:55;62.60;;;51.58;;
38083;SDS011;23894;51.466;7.444;2023-05-15T07:26:57;64.80;;;51.42;;
38083;SDS011;23894;51.466;7.444;2023-05-15T07:28:58;64.75;;;55.17;;
38083;SDS011;23894;51.466;7.444;2023-05-15T07:31:00;65.82;;;52.70;;
38083;SDS011;23894;51.466;7.444;2023-05-15T07:33:01;66.45;;;52.83;;
38083;SDS011;23894;51.466;7.444;2023-05-15T07:35:02;75.78;;;58.45;;
38083;SDS011;23894;51.466;7.444;2023-05-15T07:37:04;86.50;;;65.03;;
38083;SDS011;23894;51.466;7.444;2023-05-15T07:41:05;80.53;;;61.28;;
38083;SDS011;23894;51.466;7.444;2023-05-15T07:43:07;77.45;;;61.92;;
38083;SDS011;23894;51.466;7.444;2023-05-15T07:45:08;85.07;;;64.90;;
38083;SDS011;23894;51.466;7.444;2023-05-15T07:47:09;81.63;;;64.75;;
38083;SDS011;23894;51.466;7.444;2023-05-15T07:49:10;88.00;;;66.45;;
38083;SDS011;23894;51.466;7.444;2023-05-15T07:53:13;92.78;;;70.97;;
38083;SDS011;23894;51.466;7.444;2023-05-15T07:55:15;98.25;;;73.03;;
38083;SDS011;23894;51.466;7.444;2023-05-15T07:57:16;95.90;;;68.00;;
38083;SDS011;23894;51.466;7.444;2023-05-15T08:01:18;100.63;;;69.93;;
38083;SDS011;23894;51.466;7.444;2023-05-15T08:05:20;100.25;;;70.00;;
38083;SDS011;23894;51.466;7.444;2023-05-15T08:09:22;91.63;;;66.18;;
38083;SDS011;23894;51.466;7.444;2023-05-15T08:13:24;91.22;;;67.15;;
38083;SDS011;23894;51.466;7.444;2023-05-15T08:15:25;86.80;;;64.05;;
38083;SDS011;23894;51.466;7.444;2023-05-15T08:17:26;78.63;;;61.38;;
38083;SDS011;23894;51.466;7.444;2023-05-15T08:21:29;72.32;;;56.83;;
38083;SDS011;23894;51.466;7.444;2023-05-15T08:23:30;78.30;;;62.08;;
38083;SDS011;23894;51.466;7.444;2023-05-15T08:27:32;68.93;;;56.10;;
38083;SDS011;23894;51.466;7.444;2023-05-15T08:31:34;60.83;;;51.08;;
38083;SDS011;23894;51.466;7.444;2023-05-15T08:33:35;72.10;;;57.03;;
38083;SDS011;23894;51.466;7.444;2023-05-15T08:37:37;60.95;;;49.83;;
38083;SDS011;23894;51.466;7.444;2023-05-15T08:41:46;57.53;;;50.47;;
38083;SDS011;23894;51.466;7.444;2023-05-15T08:43:48;63.55;;;52.60;;
38083;SDS011;23894;51.466;7.444;2023-05-15T08:45:51;62.45;;;53.53;;
38083;SDS011;23894;51.466;7.444;2023-05-15T08:47:53;57.35;;;47.40;;
38083;SDS011;23894;51.466;7.444;2023-05-15T08:49:57;53.47;;;46.25;;
38083;SDS011;23894;51.466;7.444;2023-05-15T08:51:59;49.30;;;43.58;;
38083;SDS011;23894;51.466;7.444;2023-05-15T08:56:01;44.38;;;38.95;;
38083;SDS011;23894;51.466;7.444;2023-05-15T08:58:03;45.83;;;40.90;;
38083;SDS011;23894;51.466;7.444;2023-05-15T09:02:08;43.45;;;38.70;;
38083;SDS011;23894;51.466;7.444;2023-05-15T09:04:09;42.33;;;37.65;;
38083;SDS011;23894;51.466;7.444;2023-05-15T09:08:11;37.13;;;32.53;;
38083;SDS011;23894;51.466;7.444;2023-05-15T09:10:12;37.88;;;33.88;;
38083;SDS011;23894;51.466;7.444;2023-05-15T09:12:14;38.15;;;34.03;;
38083;SDS011;23894;51.466;7.444;2023-05-15T09:14:15;36.42;;;32.65;;
38083;SDS011;23894;51.466;7.444;2023-05-15T09:18:17;38.05;;;34.08;;
38083;SDS011;23894;51.466;7.444;2023-05-15T09:20:26;36.42;;;32.58;;
38083;SDS011;23894;51.466;7.444;2023-05-15T09:22:27;40.67;;;36.22;;
38083;SDS011;23894;51.466;7.444;2023-05-15T09:24:34;37.58;;;33.58;;
38083;SDS011;23894;51.466;7.444;2023-05-15T09:26:37;39.00;;;34.55;;
38083;SDS011;23894;51.466;7.444;2023-05-15T09:30:40;34.83;;;30.02;;
38083;SDS011;23894;51.466;7.444;2023-05-15T09:32:41;36.42;;;32.47;;
38083;SDS011;23894;51.466;7.444;2023-05-15T09:36:43;30.42;;;27.08;;
38083;SDS011;23894;51.466;7.444;2023-05-15T09:38:44;33.28;;;29.60;;
38083;SDS011;23894;51.466;7.444;2023-05-15T09:40:47;30.67;;;27.23;;
38083;SDS011;23894;51.466;7.444;2023-05-15T09:44:49;23.10;;;20.60;;
38083;SDS011;23894;51.466;7.444;2023-05-15T09:48:54;21.30;;;17.95;;
38083;SDS011;23894;51.466;7.444;2023-05-15T09:50:55;21.33;;;19.20;;
38083;SDS011;23894;51.466;7.444;2023-05-15T09:52:57;21.35;;;19.15;;
38083;SDS011;23894;51.466;7.444;2023-05-15T09:54:58;23.70;;;20.77;;
38083;SDS011;23894;51.466;7.444;2023-05-15T09:59:00;20.15;;;17.27;;
38083;SDS011;23894;51.466;7.444;2023-05-15T10:01:01;21.00;;;16.63;;
38083;SDS011;23894;51.466;7.444;2023-05-15T10:03:06;21.85;;;17.92;;
38083;SDS011;23894;51.466;7.444;2023-05-15T10:05:07;23.25;;;18.55;;
38083;SDS011;23894;51.466;7.444;2023-05-15T10:07:11;20.98;;;17.33;;
38083;SDS011;23894;51.466;7.444;2023-05-15T10:09:13;21.65;;;17.33;;
38083;SDS011;23894;51.466;7.444;2023-05-15T10:11:14;19.38;;;16.20;;
38083;SDS011;23894;51.466;7.444;2023-05-15T10:13:15;20.25;;;17.58;;
38083;SDS011;23894;51.466;7.444;2023-05-15T10:15:17;22.38;;;17.52;;
38083;SDS011;23894;51.466;7.444;2023-05-15T10:17:19;21.92;;;17.50;;
38083;SDS011;23894;51.466;7.444;2023-05-15T10:19:21;18.45;;;16.45;;
38083;SDS011;23894;51.466;7.444;2023-05-15T10:21:22;22.13;;;17.08;;
38083;SDS011;23894;51.466;7.444;2023-05-15T10:23:24;20.52;;;18.25;;
38083;SDS011;23894;51.466;7.444;2023-05-15T10:25:30;21.73;;;17.88;;
38083;SDS011;23894;51.466;7.444;2023-05-15T10:27:33;22.42;;;18.60;;
38083;SDS011;23894;51.466;7.444;2023-05-15T10:29:35;20.90;;;17.15;;
38083;SDS011;23894;51.466;7.444;2023-05-15T10:31:36;21.13;;;18.15;;
38083;SDS011;23894;51.466;7.444;2023-05-15T10:33:37;20.80;;;15.75;;
38083;SDS011;23894;51.466;7.444;2023-05-15T10:35:39;21.75;;;18.13;;
38083;SDS011;23894;51.466;7.444;2023-05-15T10:39:40;20.60;;;16.85;;
38083;SDS011;23894;51.466;7.444;2023-05-15T10:41:42;19.08;;;15.90;;
38083;SDS011;23894;51.466;7.444;2023-05-15T10:43:44;20.38;;;17.55;;
38083;SDS011;23894;51.466;7.444;2023-05-15T10:45:46;18.85;;;16.85;;
38083;SDS011;23894;51.466;7.444;2023-05-15T10:47:47;24.38;;;19.00;;
38083;SDS011;23894;51.466;7.444;2023-05-15T10:49:49;20.77;;;17.70;;
38083;SDS011;23894;51.466;7.444;2023-05-15T10:53:51;21.13;;;16.73;;
38083;SDS011;23894;51.466;7.444;2023-05-15T10:55:52;17.52;;;15.73;;
38083;SDS011;23894;51.466;7.444;2023-05-15T10:59:54;20.10;;;16.75;;
38083;SDS011;23894;51.466;7.444;2023-05-15T11:01:55;17.40;;;15.27;;
38083;SDS011;23894;51.466;7.444;2023-05-15T11:06:14;20.70;;;16.55;;
38083;SDS011;23894;51.466;7.444;2023-05-15T11:10:34;15.07;;;13.20;;
38083;SDS011;23894;51.466;7.444;2023-05-15T11:12:55;17.23;;;13.63;;
38083;SDS011;23894;51.466;7.444;2023-05-15T11:16:58;14.52;;;13.02;;
38083;SDS011;23894;51.466;7.444;2023-05-15T11:18:59;15.52;;;13.35;;
38083;SDS011;23894;51.466;7.444;2023-05-15T11:23:01;16.05;;;12.15;;
38083;SDS011;23894;51.466;7.444;2023-05-15T11:27:08;12.73;;;10.45;;
38083;SDS011;23894;51.466;7.444;2023-05-15T11:29:18;12.90;;;11.50;;
38083;SDS011;23894;51.466;7.444;2023-05-15T11:31:19;15.63;;;12.13;;
38083;SDS011;23894;51.466;7.444;2023-05-15T11:33:29;14.13;;;11.25;;
38083;SDS011;23894;51.466;7.444;2023-05-15T11:37:36;14.68;;;11.88;;
38083;SDS011;23894;51.466;7.444;2023-05-15T11:39:37;12.65;;;9.93;;
38083;SDS011;23894;51.466;7.444;2023-05-15T11:41:38;13.00;;;10.80;;
38083;SDS011;23894;51.466;7.444;2023-05-15T11:43:39;14.43;;;11.57;;
38083;SDS011;23894;51.466;7.444;2023-05-15T11:45:41;13.45;;;11.15;;
38083;SDS011;23894;51.466;7.444;2023-05-15T11:47:43;15.75;;;11.43;;
38083;SDS011;23894;51.466;7.444;2023-05-15T11:49:44;14.77;;;11.32;;
38083;SDS011;23894;51.466;7.444;2023-05-15T11:51:48;14.70;;;11.68;;
38083;SDS011;23894;51.466;7.444;2023-05-15T11:53:50;13.15;;;10.05;;
38083;SDS011;23894;51.466;7.444;2023-05-15T11:55:52;16.08;;;9.63;;
38083;SDS011;23894;51.466;7.444;2023-05-15T11:57:53;12.73;;;9.10;;
38083;SDS011;23894;51.466;7.444;2023-05-15T11:59:54;10.70;;;8.60;;
38083;SDS011;23894;51.466;7.444;2023-05-15T12:01:55;11.38;;;8.68;;
38083;SDS011;23894;51.466;7.444;2023-05-15T12:03:56;11.55;;;7.78;;
38083;SDS011;23894;51.466;7.444;2023-05-15T12:05:57;11.93;;;7.40;;
38083;SDS011;23894;51.466;7.444;2023-05-15T12:07:58;10.20;;;7.10;;
38083;SDS011;23894;51.466;7.444;2023-05-15T12:10:01;8.82;;;6.13;;
38083;SDS011;23894;51.466;7.444;2023-05-15T12:12:02;8.38;;;5.57;;
38083;SDS011;23894;51.466;7.444;2023-05-15T12:14:09;8.68;;;6.25;;
38083;SDS011;23894;51.466;7.444;2023-05-15T12:16:10;11.13;;;6.45;;
38083;SDS011;23894;51.466;7.444;2023-05-15T12:18:11;11.30;;;6.78;;
38083;SDS011;23894;51.466;7.444;2023-05-15T12:20:16;10.13;;;6.90;;
38083;SDS011;23894;51.466;7.444;2023-05-15T12:22:18;11.02;;;7.50;;
38083;SDS011;23894;51.466;7.444;2023-05-15T12:24:20;7.90;;;5.85;;
38083;SDS011;23894;51.466;7.444;2023-05-15T12:26:21;8.80;;;6.18;;
38083;SDS011;23894;51.466;7.444;2023-05-15T12:28:23;8.88;;;6.57;;
38083;SDS011;23894;51.466;7.444;2023-05-15T12:30:25;10.90;;;6.68;;
38083;SDS011;23894;51.466;7.444;2023-05-15T12:32:26;9.65;;;7.05;;
38083;SDS011;23894;51.466;7.444;2023-05-15T12:34:28;9.32;;;6.63;;
38083;SDS011;23894;51.466;7.444;2023-05-15T12:36:29;10.00;;;6.72;;
38083;SDS011;23894;51.466;7.444;2023-05-15T12:38:30;9.38;;;6.82;;
38083;SDS011;23894;51.466;7.444;2023-05-15T12:40:34;9.32;;;6.18;;
38083;SDS011;23894;51.466;7.444;2023-05-15T12:42:39;9.75;;;6.68;;
38083;SDS011;23894;51.466;7.444;2023-05-15T12:44:41;9.70;;;6.75;;
38083;SDS011;23894;51.466;7.444;2023-05-15T12:46:42;10.98;;;7.20;;
38083;SDS011;23894;51.466;7.444;2023-05-15T12:48:43;10.52;;;6.45;;
38083;SDS011;23894;51.466;7.444;2023-05-15T12:50:44;8.23;;;5.85;;
38083;SDS011;23894;51.466;7.444;2023-05-15T12:53:06;7.68;;;5.88;;
38083;SDS011;23894;51.466;7.444;2023-05-15T12:55:07;7.25;;;5.15;;
38083;SDS011;23894;51.466;7.444;2023-05-15T12:57:08;10.60;;;5.50;;
38083;SDS011;23894;51.466;7.444;2023-05-15T12:59:09;8.73;;;4.70;;
38083;SDS011;23894;51.466;7.444;2023-05-15T13:01:11;8.57;;;4.97;;
38083;SDS011;23894;51.466;7.444;2023-05-15T13:03:12;12.20;;;5.15;;
38083;SDS011;23894;51.466;7.444;2023-05-15T13:05:13;6.68;;;4.55;;
38083;SDS011;23894;51.466;7.444;2023-05-15T13:07:14;8.20;;;5.45;;
38083;SDS011;23894;51.466;7.444;2023-05-15T13:09:22;8.23;;;4.28;;
38083;SDS011;23894;51.466;7.444;2023-05-15T13:11:28;7.57;;;4.32;;
38083;SDS011;23894;51.466;7.444;2023-05-15T13:13:44;8.77;;;4.90;;
38083;SDS011;23894;51.466;7.444;2023-05-15T13:15:47;8.45;;;4.53;;
38083;SDS011;23894;51.466;7.444;2023-05-15T13:18:02;6.82;;;4.13;;
38083;SDS011;23894;51.466;7.444;2023-05-15T13:20:04;8.88;;;4.80;;
38083;SDS011;23894;51.466;7.444;2023-05-15T13:22:06;5.88;;;3.90;;
38083;SDS011;23894;51.466;7.444;2023-05-15T13:24:07;7.57;;;4.05;;
38083;SDS011;23894;51.466;7.444;2023-05-15T13:26:09;6.82;;;4.13;;
38083;SDS011;23894;51.466;7.444;2023-05-15T13:28:10;6.03;;;3.97;;
38083;SDS011;23894;51.466;7.444;2023-05-15T13:30:16;6.28;;;4.05;;
38083;SDS011;23894;51.466;7.444;2023-05-15T13:32:17;8.48;;;4.95;;
38083;SDS011;23894;51.466;7.444;2023-05-15T13:34:18;7.90;;;4.88;;
38083;SDS011;23894;51.466;7.444;2023-05-15T13:36:20;7.55;;;4.60;;
38083;SDS011;23894;51.466;7.444;2023-05-15T13:38:21;5.72;;;3.90;;
38083;SDS011;23894;51.466;7.444;2023-05-15T13:40:22;7.75;;;4.03;;
38083;SDS011;23894;51.466;7.444;2023-05-15T13:42:23;8.57;;;4.30;;
38083;SDS011;23894;51.466;7.444;2023-05-15T13:44:24;6.70;;;3.72;;
38083;SDS011;23894;51.466;7.444;2023-05-15T13:46:25;7.65;;;3.88;;
38083;SDS011;23894;51.466;7.444;2023-05-15T13:48:26;7.35;;;3.50;;
38083;SDS011;23894;51.466;7.444;2023-05-15T13:50:27;5.93;;;3.40;;
38083;SDS011;23894;51.466;7.444;2023-05-15T13:52:28;28.30;;;13.57;;
38083;SDS011;23894;51.466;7.444;2023-05-15T13:54:30;79.10;;;32.05;;
38083;SDS011;23894;51.466;7.444;2023-05-15T13:56:31;45.65;;;17.55;;
38083;SDS011;23894;51.466;7.444;2023-05-15T13:58:32;24.17;;;10.13;;
38083;SDS011;23894;51.466;7.444;2023-05-15T14:00:33;43.65;;;16.90;;